Terminal Aerodrome Forecast
Issued by NWS Charleston, WV

Current Version | Previous Version | Text Only | Print | Product List | Glossary Off
Versions: 1 2 3 4 5 6 7 8 9 10 11 12 13 14 15 16 17 18 19 20 21 22 23 24 25 26

000
FTUS41 KRLX 200800 AAA
TAFPKB
TAF AMD
KPKB 200840Z 2009/2106 00000KT P6SM BKN200
     FM201200 00000KT P6SM BKN070
     FM201600 19006KT P6SM BKN080
     FM210200 21005KT 6SM -SHRA BR BKN050
     FM210500 23004KT 4SM -SHRA BR OVC030=

USA.gov is the U.S. government's official web portal to all federal, state and local government web resources and services.